Aktualne dane pomiarowe

Uwaga, wersja testowa! Automatyczne pobieranie danych za pomocą narzędzi lub skryptów to umożliwiających jest zabronione.

Dane meteo z obszaru Polski uzyskane na podstawie depesz SYNOP pobieranych co godzinę z NWS. Najedź myszką na symbol przedstawiony w tabeli, aby uzyskać informacje co do jego znaczenia. Prosimy pamiętać, że to testowa wersja strony, która jeszcze nie jest ukończona. Stworzono również jest krótki FAQ dotyczący korzystania z tej podstrony Anomalie temperatury w chwili obecnej odniesione są do okresu referencyjnego 1951-2016. Okres ten będzie później zmieniony na 1981-2010. Kliknij ikonę aby pobrać plik CSV. Kliknij ikonę aby wygenerować mapę synoptyczną dla danego terminu.

Wybierz Datę:    

        

Tomaszów Mazowiecki (12466)

Dane terminowe dla wybranej stacji. Kliknij datę, aby otrzymać dane z tego terminu dla wszystkich stacji.

TemperaturaZachmurzenieWiatrCiśnienieOpadyPogoda
 Data t td wb tx tn tg rh  Nt Nl Cl Cm Ch ws wd g1 g2 wx mslp ppp ch 24h 12h t ww ww w1 w2  
2019-07-04 23:00:00 13.3 3.1 7.9--- 50---2wx---1016.7 994.8----------
2019-07-04 22:00:00 12.2 2.9 7.3--- 53---1wx---1017.3 995.3----------
2019-07-04 21:00:00 14.1 2.4 8.1--- 4510.0wx-wx0wx---1017.5 995.6 -0.6---------
2019-07-04 20:00:00 16.7 2.3 9.4--- 3810.0wx-wx1wx---1017.6 995.9 -0.6---------
2019-07-04 19:00:00 18.3 1.8 10.0--- 3310.0wx-wx2wx---1017.7 996.1 -0.7---------
2019-07-04 18:00:00 20.3 2.2 11.1--- 3010.0wx-wx4wx---1017.6 996.2 -0.9---------
2019-07-04 17:00:00 20.9 2.7 11.5--- 3010.0wxwxwxwx4wx---1017.9 996.5 -1.2---------
2019-07-04 16:00:00 21.3 3.1 11.8--- 3010.0wxwxwxwx4wx---1018.1 996.8 -1.1---------
2019-07-04 15:00:00 21.9 3.1 12.1--- 2910.0wxwxwxwx4wx---1018.4 997.1 -1.4---------
2019-07-04 14:00:00 21.4 3.1 11.9--- 3010.0wxwxwx6wx---1019.1 997.7 -1.2---------
2019-07-04 13:00:00 20.7 3.5 11.7--- 3210.0wxwxwx5wx---1019.3 997.9 -1.0---------
2019-07-04 12:00:00 20.2 3.1 11.3--- 3210.0wxwxwx5wx---1020.0 998.5 -0.5---------
2019-07-04 11:00:00 19.0 3.6 11.0--- 3610.0wxwxwx5wx---1020.5 998.9 -0.2---------
2019-07-04 10:00:00 18.7 3.0 10.6--- 3510.0wxwxwx7wx---1020.5 998.9 -0.5---------
2019-07-04 09:00:00 18.8 2.6 10.5--- 3410.0wxwxwx6wx12--1020.5 998.9 -0.5---------
2019-07-04 08:00:00 18.0 2.8 10.2--- 3610.0wxwxwx4wx---1020.7 999.1 -0.2---------
2019-07-04 07:00:00 17.1 4.5 10.4--- 4310.0wxwxwxwx2wx---1021.1 999.4 0.0---------
2019-07-04 06:00:00 14.7 5.5 9.6--- 5410.0wx-wx3wx---1021.3 999.4 0.0---------
2019-07-04 05:00:00 12.1 5.3 8.2--- 6310.0wx-wx3wx---1021.4 999.3 -0.1---------
2019-07-04 04:00:00 9.7 5.1 7.0--- 7310.0wx-wx2wx---1021.7 999.4 0.2---------
2019-07-04 03:00:00 5.9 3.4 4.3--- 8410.0wx-wx1wx---1022.0 999.4 0.3---------
2019-07-04 02:00:00 6.9 3.3 4.8--- 7810.0wx-wx1wx---1021.9 999.4 0.2---------
2019-07-04 01:00:00 7.9 4.5 5.8--- 7910.0wx-wx1wx---1021.7 999.2 0.1---------
2019-07-04 00:00:00 9.7 5.0 6.9--- 7310.0wx-wx1----1021.4 999.1 0.0---------
2019-07-03 23:00:00 10.8 4.1 7.1--- 6310.0wx-wx1wx---1021.4 999.2 0.7---------
2019-07-03 22:00:00 13.5 4.1 8.4--- 5310.0wx-wx2wx---1021.1 999.1 1.1---------
2019-07-03 21:00:00 13.8 3.6 8.4--- 5010.0wx-wx3wx---1021.1 999.1 1.4---------
2019-07-03 20:00:00 15.0 2.5 8.6--- 4310.0wx-wx3wx---1020.4 998.5 0.6---------
2019-07-03 19:00:00 16.6 2.3 9.3--- 3810.0wx-wx3wx---1019.7 998.0 0.2---------
2019-07-03 18:00:00 18.6 2.0 10.2--- 3310.0wxwxwx4wx---1019.3 997.7 0.0---------
2019-07-03 17:00:00 19.5 2.4 10.8--- 3210.0wxwxwx4wx---1019.3 997.8 -0.1---------
2019-07-03 16:00:00 19.5 2.0 10.6--- 3110.0wxwxwx5wx---1019.3 997.8 -0.2---------
2019-07-03 15:00:00 20.3 2.5 11.2--- 3110.0wxwxwx6wx---1019.0 997.6 -0.4---------
2019-07-03 14:00:00 20.1 2.5 11.1--- 3110.0wxwxwx6wx---1019.4 997.9 0.0---------
2019-07-03 13:00:00 19.3 2.2 10.6--- 3210.0wxwxwx6wx---1019.4 997.9 0.0---------
2019-07-03 12:00:00 18.7 2.1 10.3--- 3310.0wxwxwx6wx---1019.6 998.0 0.0---------
2019-07-03 11:00:00 19.5 2.4 10.8--- 3210.0wxwxwx6wx---1019.4 997.9 -0.1---------
2019-07-03 10:00:00 18.4 2.7 10.3--- 3510.0wxwxwx6wx11--1019.5 997.9 0.1---------
2019-07-03 09:00:00 17.6 2.4 9.9--- 3610.0wxwxwx6wx---1019.6 998.0 0.5---------
2019-07-03 08:00:00 16.3 4.1 9.8--- 4410.0wxwxwx4wx---1019.7 998.0 0.7---------
2019-07-03 07:00:00 15.3 5.5 9.9--- 5210.0wxwxwx3wx---1019.6 997.8 0.6---------
2019-07-03 06:00:00 15.4 6.4 10.3--- 5510.0wxwxwx3wx---1019.3 997.5 0.4---------
2019-07-03 05:00:00 14.4 5.9 9.6--- 5710.0wxwxwx3wx---1019.2 997.3 0.5---------
2019-07-03 04:00:00 12.9 6.0 8.9--- 6310.0wxwxwx2wx---1019.2 997.2 0.8---------
2019-07-03 03:00:00 11.8 5.7 8.3--- 6610.0wxwxwx2wx---1019.3 997.2 1.0---------
2019-07-03 02:00:00 12.1 5.5 8.3--- 6410.0wxwxwx2wx---1018.9 996.8 0.7---------
2019-07-03 01:00:00 11.8 5.2 8.0--- 6410.0wxwxwx2wx---1018.5 996.4 0.6---------
2019-07-03 00:00:00 13.8 5.7 9.2--- 5810.0wxwxwx2wx---1018.1 996.2 0.4---------
1.7 ms

 

Print Friendly, PDF & Email